sensor_id;sensor_type;location;lat;lon;timestamp;pressure;altitude;pressure_sealevel;temperature;humidity
69784;BME280;57054;51.978;4.498;2022-12-29T00:01:17;99861.13;;;9.00;100.00
69784;BME280;57054;51.978;4.498;2022-12-29T00:03:45;99846.31;;;9.00;100.00
69784;BME280;57054;51.978;4.498;2022-12-29T00:06:10;99840.22;;;9.00;100.00
69784;BME280;57054;51.978;4.498;2022-12-29T00:08:36;99836.78;;;8.99;100.00
69784;BME280;57054;51.978;4.498;2022-12-29T00:11:08;99828.03;;;9.00;100.00
69784;BME280;57054;51.978;4.498;2022-12-29T00:13:34;99820.97;;;9.02;100.00
69784;BME280;57054;51.978;4.498;2022-12-29T00:16:18;99818.34;;;9.02;100.00
69784;BME280;57054;51.978;4.498;2022-12-29T00:18:43;99810.50;;;9.02;100.00
69784;BME280;57054;51.978;4.498;2022-12-29T00:21:13;99806.97;;;9.03;100.00
69784;BME280;57054;51.978;4.498;2022-12-29T00:23:57;99800.00;;;9.04;100.00
69784;BME280;57054;51.978;4.498;2022-12-29T00:26:53;99800.00;;;9.04;100.00
69784;BME280;57054;51.978;4.498;2022-12-29T00:29:38;99806.06;;;9.05;100.00
69784;BME280;57054;51.978;4.498;2022-12-29T00:32:22;99802.59;;;9.04;100.00
69784;BME280;57054;51.978;4.498;2022-12-29T00:35:08;99799.06;;;9.05;100.00
69784;BME280;57054;51.978;4.498;2022-12-29T00:37:34;99798.97;;;9.07;100.00
69784;BME280;57054;51.978;4.498;2022-12-29T00:40:18;99798.16;;;9.06;100.00
69784;BME280;57054;51.978;4.498;2022-12-29T00:43:03;99795.53;;;9.06;100.00
69784;BME280;57054;51.978;4.498;2022-12-29T00:45:47;99795.44;;;9.08;100.00
69784;BME280;57054;51.978;4.498;2022-12-29T00:48:12;99784.97;;;9.08;100.00
69784;BME280;57054;51.978;4.498;2022-12-29T00:50:38;99796.28;;;9.08;100.00
69784;BME280;57054;51.978;4.498;2022-12-29T00:53:03;99785.84;;;9.08;100.00
69784;BME280;57054;51.978;4.498;2022-12-29T00:55:29;99781.47;;;9.09;100.00
69784;BME280;57054;51.978;4.498;2022-12-29T00:57:55;99788.38;;;9.10;100.00
69784;BME280;57054;51.978;4.498;2022-12-29T01:00:20;99794.53;;;9.09;100.00
69784;BME280;57054;51.978;4.498;2022-12-29T01:02:46;99784.06;;;9.09;100.00
69784;BME280;57054;51.978;4.498;2022-12-29T01:05:12;99777.16;;;9.08;100.00
69784;BME280;57054;51.978;4.498;2022-12-29T01:07:37;99783.22;;;9.08;100.00
69784;BME280;57054;51.978;4.498;2022-12-29T01:10:03;99775.41;;;9.08;100.00
69784;BME280;57054;51.978;4.498;2022-12-29T01:12:37;99777.06;;;9.09;100.00
69784;BME280;57054;51.978;4.498;2022-12-29T01:15:07;99772.78;;;9.08;100.00
69784;BME280;57054;51.978;4.498;2022-12-29T01:17:33;99788.38;;;9.10;100.00
69784;BME280;57054;51.978;4.498;2022-12-29T01:19:58;99787.53;;;9.09;100.00
69784;BME280;57054;51.978;4.498;2022-12-29T01:22:24;99809.34;;;9.08;100.00
69784;BME280;57054;51.978;4.498;2022-12-29T01:24:49;99798.03;;;9.08;100.00
69784;BME280;57054;51.978;4.498;2022-12-29T01:27:15;99803.25;;;9.08;100.00
69784;BME280;57054;51.978;4.498;2022-12-29T01:29:41;99798.03;;;9.08;100.00
69784;BME280;57054;51.978;4.498;2022-12-29T01:32:07;99796.38;;;9.07;100.00
69784;BME280;57054;51.978;4.498;2022-12-29T01:34:32;99803.25;;;9.08;100.00
69784;BME280;57054;51.978;4.498;2022-12-29T01:36:58;99791.97;;;9.07;100.00
69784;BME280;57054;51.978;4.498;2022-12-29T01:39:23;99795.44;;;9.08;100.00
69784;BME280;57054;51.978;4.498;2022-12-29T01:41:48;99784.97;;;9.08;100.00
69784;BME280;57054;51.978;4.498;2022-12-29T01:46:58;99785.09;;;9.06;100.00
69784;BME280;57054;51.978;4.498;2022-12-29T01:49:26;99791.16;;;9.07;100.00
69784;BME280;57054;51.978;4.498;2022-12-29T01:51:59;99768.53;;;9.06;100.00
69784;BME280;57054;51.978;4.498;2022-12-29T01:54:28;99776.38;;;9.06;100.00
69784;BME280;57054;51.978;4.498;2022-12-29T01:56:55;99779.00;;;9.06;100.00
69784;BME280;57054;51.978;4.498;2022-12-29T01:59:22;99784.31;;;9.04;100.00
69784;BME280;57054;51.978;4.498;2022-12-29T02:04:57;99789.53;;;9.04;100.00
69784;BME280;57054;51.978;4.498;2022-12-29T02:07:23;99803.44;;;9.05;100.00
69784;BME280;57054;51.978;4.498;2022-12-29T02:09:50;99791.28;;;9.03;100.00
69784;BME280;57054;51.978;4.498;2022-12-29T02:12:16;99801.75;;;9.03;100.00
69784;BME280;57054;51.978;4.498;2022-12-29T02:14:42;99776.50;;;9.04;100.00
69784;BME280;57054;51.978;4.498;2022-12-29T02:22:35;99786.84;;;9.06;100.00
69784;BME280;57054;51.978;4.498;2022-12-29T02:27:50;99791.22;;;9.05;100.00
69784;BME280;57054;51.978;4.498;2022-12-29T02:35:35;99770.31;;;9.05;100.00
69784;BME280;57054;51.978;4.498;2022-12-29T02:38:10;99792.06;;;9.06;100.00
69784;BME280;57054;51.978;4.498;2022-12-29T02:40:39;99786.00;;;9.05;100.00
69784;BME280;57054;51.978;4.498;2022-12-29T02:45:41;99805.22;;;9.04;100.00
69784;BME280;57054;51.978;4.498;2022-12-29T02:48:10;99803.44;;;9.05;100.00
69784;BME280;57054;51.978;4.498;2022-12-29T02:50:54;99794.84;;;9.02;100.00
69784;BME280;57054;51.978;4.498;2022-12-29T02:53:21;99789.63;;;9.02;100.00
69784;BME280;57054;51.978;4.498;2022-12-29T02:56:08;99779.19;;;9.02;100.00
69784;BME280;57054;51.978;4.498;2022-12-29T02:58:33;99785.22;;;9.03;100.00
69784;BME280;57054;51.978;4.498;2022-12-29T03:01:16;99790.53;;;9.01;100.00
69784;BME280;57054;51.978;4.498;2022-12-29T03:03:49;99792.38;;;8.99;100.00
69784;BME280;57054;51.978;4.498;2022-12-29T03:08:49;99802.00;;;8.99;100.00
69784;BME280;57054;51.978;4.498;2022-12-29T03:11:19;99792.44;;;8.98;100.00
69784;BME280;57054;51.978;4.498;2022-12-29T03:14:42;99772.41;;;8.98;100.00
69784;BME280;57054;51.978;4.498;2022-12-29T03:19:51;99762.88;;;8.97;100.00
69784;BME280;57054;51.978;4.498;2022-12-29T03:22:21;99768.94;;;8.98;100.00
69784;BME280;57054;51.978;4.498;2022-12-29T03:25:08;99775.09;;;8.97;100.00
69784;BME280;57054;51.978;4.498;2022-12-29T03:27:37;99769.97;;;8.95;100.00
69784;BME280;57054;51.978;4.498;2022-12-29T03:30:04;99765.56;;;8.96;100.00
69784;BME280;57054;51.978;4.498;2022-12-29T03:32:48;99756.91;;;8.95;100.00
69784;BME280;57054;51.978;4.498;2022-12-29T03:35:16;99768.25;;;8.94;100.00
69784;BME280;57054;51.978;4.498;2022-12-29T03:37:49;99776.09;;;8.94;100.00
69784;BME280;57054;51.978;4.498;2022-12-29T03:40:15;99778.78;;;8.93;100.00
69784;BME280;57054;51.978;4.498;2022-12-29T03:42:41;99788.38;;;8.92;100.00
69784;BME280;57054;51.978;4.498;2022-12-29T03:45:07;99781.38;;;8.93;100.00
69784;BME280;57054;51.978;4.498;2022-12-29T03:47:32;99792.69;;;8.93;100.00
69784;BME280;57054;51.978;4.498;2022-12-29T03:49:58;99786.69;;;8.91;100.00
69784;BME280;57054;51.978;4.498;2022-12-29T03:52:23;99794.53;;;8.91;100.00
69784;BME280;57054;51.978;4.498;2022-12-29T03:54:48;99794.53;;;8.91;100.00
69784;BME280;57054;51.978;4.498;2022-12-29T03:57:13;99792.00;;;8.90;100.00
69784;BME280;57054;51.978;4.498;2022-12-29T03:59:39;99772.88;;;8.89;100.00
69784;BME280;57054;51.978;4.498;2022-12-29T04:02:04;99769.50;;;8.87;100.00
69784;BME280;57054;51.978;4.498;2022-12-29T04:04:29;99796.53;;;8.86;100.00
69784;BME280;57054;51.978;4.498;2022-12-29T04:06:55;99783.56;;;8.84;100.00
69784;BME280;57054;51.978;4.498;2022-12-29T04:09:20;99799.16;;;8.86;100.00
69784;BME280;57054;51.978;4.498;2022-12-29T04:11:46;99802.66;;;8.85;100.00
69784;BME280;57054;51.978;4.498;2022-12-29T04:14:11;99798.22;;;8.87;100.00
69784;BME280;57054;51.978;4.498;2022-12-29T04:16:36;99793.06;;;8.86;100.00
69784;BME280;57054;51.978;4.498;2022-12-29T04:19:03;99797.53;;;8.83;100.00
69784;BME280;57054;51.978;4.498;2022-12-29T04:21:29;99800.19;;;8.82;100.00
69784;BME280;57054;51.978;4.498;2022-12-29T04:23:54;99805.44;;;8.82;100.00
69784;BME280;57054;51.978;4.498;2022-12-29T04:26:19;99795.09;;;8.80;100.00
69784;BME280;57054;51.978;4.498;2022-12-29T04:28:44;99793.44;;;8.78;100.00
69784;BME280;57054;51.978;4.498;2022-12-29T04:31:10;99796.22;;;8.75;100.00
69784;BME280;57054;51.978;4.498;2022-12-29T04:33:35;99793.69;;;8.73;100.00
69784;BME280;57054;51.978;4.498;2022-12-29T04:36:00;99804.97;;;8.74;100.00
69784;BME280;57054;51.978;4.498;2022-12-29T04:38:26;99800.66;;;8.73;100.00
69784;BME280;57054;51.978;4.498;2022-12-29T04:40:51;99807.66;;;8.72;100.00
69784;BME280;57054;51.978;4.498;2022-12-29T04:43:17;99821.63;;;8.71;100.00
69784;BME280;57054;51.978;4.498;2022-12-29T04:45:44;99807.66;;;8.72;100.00
69784;BME280;57054;51.978;4.498;2022-12-29T04:48:09;99818.25;;;8.69;100.00
69784;BME280;57054;51.978;4.498;2022-12-29T04:50:35;99815.63;;;8.69;100.00
69784;BME280;57054;51.978;4.498;2022-12-29T04:53:00;99823.47;;;8.69;100.00
69784;BME280;57054;51.978;4.498;2022-12-29T04:55:25;99828.69;;;8.69;100.00
69784;BME280;57054;51.978;4.498;2022-12-29T04:57:50;99824.41;;;8.68;100.00
69784;BME280;57054;51.978;4.498;2022-12-29T05:00:16;99819.19;;;8.68;100.00
69784;BME280;57054;51.978;4.498;2022-12-29T05:02:41;99833.97;;;8.68;100.00
69784;BME280;57054;51.978;4.498;2022-12-29T05:05:06;99828.84;;;8.66;100.00
69784;BME280;57054;51.978;4.498;2022-12-29T05:07:32;99827.16;;;8.65;100.00
69784;BME280;57054;51.978;4.498;2022-12-29T05:09:58;99831.53;;;8.64;100.00
69784;BME280;57054;51.978;4.498;2022-12-29T05:12:23;99828.94;;;8.64;100.00
69784;BME280;57054;51.978;4.498;2022-12-29T05:14:49;99843.81;;;8.62;100.00
69784;BME280;57054;51.978;4.498;2022-12-29T05:17:14;99846.50;;;8.61;100.00
69784;BME280;57054;51.978;4.498;2022-12-29T05:19:39;99856.94;;;8.61;100.00
69784;BME280;57054;51.978;4.498;2022-12-29T05:22:04;99835.22;;;8.60;100.00
69784;BME280;57054;51.978;4.498;2022-12-29T05:24:30;99834.41;;;8.58;100.00
69784;BME280;57054;51.978;4.498;2022-12-29T05:26:55;99842.34;;;8.57;100.00
69784;BME280;57054;51.978;4.498;2022-12-29T05:29:20;99815.38;;;8.56;100.00
69784;BME280;57054;51.978;4.498;2022-12-29T05:31:45;99842.41;;;8.55;100.00
69784;BME280;57054;51.978;4.498;2022-12-29T05:34:11;99827.75;;;8.53;100.00
69784;BME280;57054;51.978;4.498;2022-12-29T05:36:36;99840.78;;;8.53;100.00
69784;BME280;57054;51.978;4.498;2022-12-29T05:39:01;99840.84;;;8.51;100.00
69784;BME280;57054;51.978;4.498;2022-12-29T05:41:26;99854.78;;;8.52;100.00
69784;BME280;57054;51.978;4.498;2022-12-29T05:43:52;99854.84;;;8.50;100.00
69784;BME280;57054;51.978;4.498;2022-12-29T05:46:17;99854.84;;;8.50;100.00
69784;BME280;57054;51.978;4.498;2022-12-29T05:48:42;99876.63;;;8.49;100.00
69784;BME280;57054;51.978;4.498;2022-12-29T05:51:08;99860.97;;;8.49;100.00
69784;BME280;57054;51.978;4.498;2022-12-29T05:53:33;99860.97;;;8.49;100.00
69784;BME280;57054;51.978;4.498;2022-12-29T05:55:58;99873.19;;;8.49;100.00
69784;BME280;57054;51.978;4.498;2022-12-29T05:58:23;99871.41;;;8.49;100.00
69784;BME280;57054;51.978;4.498;2022-12-29T06:00:49;99881.00;;;8.49;100.00
69784;BME280;57054;51.978;4.498;2022-12-29T06:03:14;99864.56;;;8.47;100.00
69784;BME280;57054;51.978;4.498;2022-12-29T06:05:39;99881.91;;;8.48;100.00
69784;BME280;57054;51.978;4.498;2022-12-29T06:08:04;99883.75;;;8.45;100.00
69784;BME280;57054;51.978;4.498;2022-12-29T06:10:30;99869.03;;;8.44;100.00
69784;BME280;57054;51.978;4.498;2022-12-29T06:12:55;99871.81;;;8.40;100.00
69784;BME280;57054;51.978;4.498;2022-12-29T06:15:20;99890.13;;;8.38;100.00
69784;BME280;57054;51.978;4.498;2022-12-29T06:17:46;99871.88;;;8.38;100.00
69784;BME280;57054;51.978;4.498;2022-12-29T06:20:11;99867.59;;;8.37;100.00
69784;BME280;57054;51.978;4.498;2022-12-29T06:22:36;99864.97;;;8.37;100.00
69784;BME280;57054;51.978;4.498;2022-12-29T06:25:02;99882.41;;;8.37;100.00
69784;BME280;57054;51.978;4.498;2022-12-29T06:27:28;99861.59;;;8.35;100.00
69784;BME280;57054;51.978;4.498;2022-12-29T06:29:53;99904.31;;;8.33;100.00
69784;BME280;57054;51.978;4.498;2022-12-29T06:32:18;99874.84;;;8.31;100.00
69784;BME280;57054;51.978;4.498;2022-12-29T06:34:44;99879.16;;;8.32;100.00
69784;BME280;57054;51.978;4.498;2022-12-29T06:37:09;99878.38;;;8.30;100.00
69784;BME280;57054;51.978;4.498;2022-12-29T06:39:35;99877.53;;;8.29;100.00
69784;BME280;57054;51.978;4.498;2022-12-29T06:42:00;99879.28;;;8.29;100.00
69784;BME280;57054;51.978;4.498;2022-12-29T06:44:25;99885.41;;;8.27;100.00
69784;BME280;57054;51.978;4.498;2022-12-29T06:46:51;99886.28;;;8.28;100.00
69784;BME280;57054;51.978;4.498;2022-12-29T06:49:16;99887.25;;;8.25;100.00
69784;BME280;57054;51.978;4.498;2022-12-29T06:51:42;99883.75;;;8.26;100.00
69784;BME280;57054;51.978;4.498;2022-12-29T06:54:07;99889.09;;;8.23;100.00
69784;BME280;57054;51.978;4.498;2022-12-29T06:56:32;99867.38;;;8.23;100.00
69784;BME280;57054;51.978;4.498;2022-12-29T06:58:58;99889.09;;;8.23;100.00
69784;BME280;57054;51.978;4.498;2022-12-29T07:01:25;99891.00;;;8.20;100.00
69784;BME280;57054;51.978;4.498;2022-12-29T07:03:50;99902.34;;;8.19;100.00
69784;BME280;57054;51.978;4.498;2022-12-29T07:06:16;99891.06;;;8.18;100.00
69784;BME280;57054;51.978;4.498;2022-12-29T07:08:41;99898.81;;;8.20;100.00
69784;BME280;57054;51.978;4.498;2022-12-29T07:11:06;99900.59;;;8.19;100.00
69784;BME280;57054;51.978;4.498;2022-12-29T07:13:32;99898.97;;;8.17;100.00
69784;BME280;57054;51.978;4.498;2022-12-29T07:15:57;99902.50;;;8.16;100.00
69784;BME280;57054;51.978;4.498;2022-12-29T07:18:22;99899.94;;;8.14;100.00
69784;BME280;57054;51.978;4.498;2022-12-29T07:20:47;99905.16;;;8.14;100.00
69784;BME280;57054;51.978;4.498;2022-12-29T07:23:13;99901.66;;;8.15;100.00
69784;BME280;57054;51.978;4.498;2022-12-29T07:25:38;99903.50;;;8.13;100.00
69784;BME280;57054;51.978;4.498;2022-12-29T07:28:05;99895.66;;;8.13;100.00
69784;BME280;57054;51.978;4.498;2022-12-29T07:30:31;99898.28;;;8.13;100.00
69784;BME280;57054;51.978;4.498;2022-12-29T07:32:56;99885.22;;;8.13;100.00
69784;BME280;57054;51.978;4.498;2022-12-29T07:35:21;99883.47;;;8.14;100.00
69784;BME280;57054;51.978;4.498;2022-12-29T07:37:46;99888.69;;;8.14;100.00
69784;BME280;57054;51.978;4.498;2022-12-29T07:40:12;99887.84;;;8.13;100.00
69784;BME280;57054;51.978;4.498;2022-12-29T07:42:37;99887.84;;;8.13;100.00
69784;BME280;57054;51.978;4.498;2022-12-29T07:45:03;99893.06;;;8.13;100.00
69784;BME280;57054;51.978;4.498;2022-12-29T07:47:28;99896.56;;;8.12;100.00
69784;BME280;57054;51.978;4.498;2022-12-29T07:49:53;99890.44;;;8.13;100.00
69784;BME280;57054;51.978;4.498;2022-12-29T07:52:19;99887.84;;;8.13;100.00
69784;BME280;57054;51.978;4.498;2022-12-29T07:54:44;99901.72;;;8.14;100.00
69784;BME280;57054;51.978;4.498;2022-12-29T07:57:10;99890.44;;;8.13;100.00
69784;BME280;57054;51.978;4.498;2022-12-29T07:59:35;99880.84;;;8.14;100.00
69784;BME280;57054;51.978;4.498;2022-12-29T08:02:00;99888.69;;;8.14;100.00
69784;BME280;57054;51.978;4.498;2022-12-29T08:04:26;99887.84;;;8.13;100.00
69784;BME280;57054;51.978;4.498;2022-12-29T08:06:51;99909.53;;;8.14;100.00
69784;BME280;57054;51.978;4.498;2022-12-29T08:09:16;99905.22;;;8.13;100.00
69784;BME280;57054;51.978;4.498;2022-12-29T08:11:42;99913.06;;;8.13;100.00
69784;BME280;57054;51.978;4.498;2022-12-29T08:14:08;99893.91;;;8.14;100.00
69784;BME280;57054;51.978;4.498;2022-12-29T08:16:33;99908.78;;;8.12;100.00
69784;BME280;57054;51.978;4.498;2022-12-29T08:18:58;99911.31;;;8.13;100.00
69784;BME280;57054;51.978;4.498;2022-12-29T08:21:24;99907.00;;;8.12;100.00
69784;BME280;57054;51.978;4.498;2022-12-29T08:23:49;99908.78;;;8.12;100.00
69784;BME280;57054;51.978;4.498;2022-12-29T08:26:15;99912.28;;;8.11;100.00
69784;BME280;57054;51.978;4.498;2022-12-29T08:28:40;99921.81;;;8.12;100.00
69784;BME280;57054;51.978;4.498;2022-12-29T08:31:05;99920.94;;;8.11;100.00
69784;BME280;57054;51.978;4.498;2022-12-29T08:33:30;99914.88;;;8.11;100.00
69784;BME280;57054;51.978;4.498;2022-12-29T08:36:03;99940.13;;;8.10;100.00
69784;BME280;57054;51.978;4.498;2022-12-29T08:38:28;99934.06;;;8.10;100.00
69784;BME280;57054;51.978;4.498;2022-12-29T08:40:54;99944.41;;;8.11;100.00
69784;BME280;57054;51.978;4.498;2022-12-29T08:43:19;99936.59;;;8.11;100.00
69784;BME280;57054;51.978;4.498;2022-12-29T08:45:44;99942.72;;;8.10;100.00
69784;BME280;57054;51.978;4.498;2022-12-29T08:48:09;99957.53;;;8.10;100.00
69784;BME280;57054;51.978;4.498;2022-12-29T08:50:35;99964.50;;;8.09;100.00
69784;BME280;57054;51.978;4.498;2022-12-29T08:53:00;99966.34;;;8.07;100.00
69784;BME280;57054;51.978;4.498;2022-12-29T08:55:25;99967.25;;;8.06;100.00
69784;BME280;57054;51.978;4.498;2022-12-29T08:57:51;99968.16;;;8.05;100.00
69784;BME280;57054;51.978;4.498;2022-12-29T09:00:17;99983.81;;;8.05;100.00
69784;BME280;57054;51.978;4.498;2022-12-29T09:02:42;99991.63;;;8.05;100.00
69784;BME280;57054;51.978;4.498;2022-12-29T09:05:07;99976.88;;;8.04;100.00
69784;BME280;57054;51.978;4.498;2022-12-29T09:07:33;99983.88;;;8.03;100.00
69784;BME280;57054;51.978;4.498;2022-12-29T09:09:58;99986.47;;;8.03;100.00
69784;BME280;57054;51.978;4.498;2022-12-29T09:12:24;99996.06;;;8.03;100.00
69784;BME280;57054;51.978;4.498;2022-12-29T09:14:49;99994.25;;;8.05;100.00
69784;BME280;57054;51.978;4.498;2022-12-29T09:17:14;99989.09;;;8.03;100.00
69784;BME280;57054;51.978;4.498;2022-12-29T09:19:58;100014.31;;;8.03;100.00
69784;BME280;57054;51.978;4.498;2022-12-29T09:22:23;100017.78;;;8.03;100.00
69784;BME280;57054;51.978;4.498;2022-12-29T09:24:48;100028.19;;;8.03;100.00
69784;BME280;57054;51.978;4.498;2022-12-29T09:27:14;100022.94;;;8.05;100.00
69784;BME280;57054;51.978;4.498;2022-12-29T09:29:39;100044.63;;;8.05;100.00
69784;BME280;57054;51.978;4.498;2022-12-29T09:32:05;100038.56;;;8.05;100.00
69784;BME280;57054;51.978;4.498;2022-12-29T09:34:30;100051.63;;;8.05;100.00
69784;BME280;57054;51.978;4.498;2022-12-29T09:36:55;100051.63;;;8.05;100.00
69784;BME280;57054;51.978;4.498;2022-12-29T09:39:21;100050.72;;;8.06;100.00
69784;BME280;57054;51.978;4.498;2022-12-29T09:47:02;100067.13;;;8.08;100.00
69784;BME280;57054;51.978;4.498;2022-12-29T09:52:05;100074.97;;;8.08;100.00
69784;BME280;57054;51.978;4.498;2022-12-29T09:57:01;100074.91;;;8.10;100.00
69784;BME280;57054;51.978;4.498;2022-12-29T09:59:32;100094.78;;;8.12;100.00
69784;BME280;57054;51.978;4.498;2022-12-29T10:02:46;100093.00;;;8.13;100.00
69784;BME280;57054;51.978;4.498;2022-12-29T10:04:46;100087.72;;;8.14;100.00
69784;BME280;57054;51.978;4.498;2022-12-29T10:10:16;100110.16;;;8.18;100.00
69784;BME280;57054;51.978;4.498;2022-12-29T10:17:48;100137.00;;;8.20;100.00
69784;BME280;57054;51.978;4.498;2022-12-29T10:25:22;100162.03;;;8.26;100.00
69784;BME280;57054;51.978;4.498;2022-12-29T10:27:50;100153.22;;;8.29;100.00
69784;BME280;57054;51.978;4.498;2022-12-29T10:30:15;100163.66;;;8.29;100.00
69784;BME280;57054;51.978;4.498;2022-12-29T10:35:47;100165.34;;;8.30;100.00
69784;BME280;57054;51.978;4.498;2022-12-29T10:38:25;100180.91;;;8.31;100.00
69784;BME280;57054;51.978;4.498;2022-12-29T10:43:46;100190.34;;;8.35;100.00
69784;BME280;57054;51.978;4.498;2022-12-29T10:46:32;100189.41;;;8.36;100.00
69784;BME280;57054;51.978;4.498;2022-12-29T10:48:58;100185.06;;;8.37;100.00
69784;BME280;57054;51.978;4.498;2022-12-29T10:53:51;100198.09;;;8.37;100.00
69784;BME280;57054;51.978;4.498;2022-12-29T10:59:03;100202.28;;;8.41;100.00
69784;BME280;57054;51.978;4.498;2022-12-29T11:01:33;100211.81;;;8.42;100.00
69784;BME280;57054;51.978;4.498;2022-12-29T11:04:10;100219.53;;;8.45;100.00
69784;BME280;57054;51.978;4.498;2022-12-29T11:06:46;100235.97;;;8.47;100.00
69784;BME280;57054;51.978;4.498;2022-12-29T11:09:16;100232.41;;;8.50;100.00
69784;BME280;57054;51.978;4.498;2022-12-29T11:11:46;100241.97;;;8.49;100.00
69784;BME280;57054;51.978;4.498;2022-12-29T11:14:13;100236.75;;;8.49;100.00
69784;BME280;57054;51.978;4.498;2022-12-29T11:16:40;100241.97;;;8.49;100.00
69784;BME280;57054;51.978;4.498;2022-12-29T11:19:18;100242.84;;;8.50;100.00
69784;BME280;57054;51.978;4.498;2022-12-29T11:21:44;100242.88;;;8.48;100.00
69784;BME280;57054;51.978;4.498;2022-12-29T11:26:44;100253.31;;;8.48;100.00
69784;BME280;57054;51.978;4.498;2022-12-29T11:34:06;100257.69;;;8.48;100.00
69784;BME280;57054;51.978;4.498;2022-12-29T11:36:32;100262.06;;;8.47;100.00
69784;BME280;57054;51.978;4.498;2022-12-29T11:38:58;100273.47;;;8.44;100.00
69784;BME280;57054;51.978;4.498;2022-12-29T11:41:25;100263.81;;;8.47;100.00
69784;BME280;57054;51.978;4.498;2022-12-29T11:43:52;100263.78;;;8.48;100.00
69784;BME280;57054;51.978;4.498;2022-12-29T11:46:23;100276.75;;;8.50;100.00
69784;BME280;57054;51.978;4.498;2022-12-29T11:48:50;100270.59;;;8.51;100.00
69784;BME280;57054;51.978;4.498;2022-12-29T11:51:22;100275.00;;;8.50;100.00
69784;BME280;57054;51.978;4.498;2022-12-29T11:53:53;100275.78;;;8.52;100.00
69784;BME280;57054;51.978;4.498;2022-12-29T11:56:22;100279.16;;;8.54;100.00
69784;BME280;57054;51.978;4.498;2022-12-29T11:58:55;100277.38;;;8.55;100.00
69784;BME280;57054;51.978;4.498;2022-12-29T12:03:57;100271.28;;;8.56;100.00
69784;BME280;57054;51.978;4.498;2022-12-29T12:06:26;100270.44;;;8.55;100.00
69784;BME280;57054;51.978;4.498;2022-12-29T12:11:32;100279.16;;;8.54;100.00
69784;BME280;57054;51.978;4.498;2022-12-29T12:16:38;100279.09;;;8.56;100.00
69784;BME280;57054;51.978;4.498;2022-12-29T12:19:49;100284.31;;;8.56;99.86
69784;BME280;57054;51.978;4.498;2022-12-29T12:21:59;100286.03;;;8.57;99.89
69784;BME280;57054;51.978;4.498;2022-12-29T12:24:30;100288.66;;;8.57;99.81
69784;BME280;57054;51.978;4.498;2022-12-29T12:34:50;100291.16;;;8.58;98.05
69784;BME280;57054;51.978;4.498;2022-12-29T12:37:23;100298.09;;;8.59;98.68
69784;BME280;57054;51.978;4.498;2022-12-29T12:40:06;100311.16;;;8.59;98.87
69784;BME280;57054;51.978;4.498;2022-12-29T12:48:04;100315.47;;;8.60;99.27
69784;BME280;57054;51.978;4.498;2022-12-29T12:53:19;100312.84;;;8.60;99.46
69784;BME280;57054;51.978;4.498;2022-12-29T12:58:18;100309.31;;;8.61;99.28
69784;BME280;57054;51.978;4.498;2022-12-29T13:00:53;100322.38;;;8.61;100.00
69784;BME280;57054;51.978;4.498;2022-12-29T13:11:12;100310.25;;;8.60;99.65
69784;BME280;57054;51.978;4.498;2022-12-29T13:14:05;100302.31;;;8.62;99.84
69784;BME280;57054;51.978;4.498;2022-12-29T13:16:48;100307.63;;;8.60;99.51
69784;BME280;57054;51.978;4.498;2022-12-29T13:21:54;100314.53;;;8.61;100.00
69784;BME280;57054;51.978;4.498;2022-12-29T13:27:21;100324.97;;;8.61;99.49
69784;BME280;57054;51.978;4.498;2022-12-29T13:32:30;100319.72;;;8.63;98.88
69784;BME280;57054;51.978;4.498;2022-12-29T13:37:28;100326.69;;;8.62;99.21
69784;BME280;57054;51.978;4.498;2022-12-29T13:40:04;100342.34;;;8.62;100.00
69784;BME280;57054;51.978;4.498;2022-12-29T13:42:35;100344.97;;;8.62;100.00
69784;BME280;57054;51.978;4.498;2022-12-29T13:45:05;100342.47;;;8.59;100.00
69784;BME280;57054;51.978;4.498;2022-12-29T13:47:39;100348.59;;;8.58;100.00
69784;BME280;57054;51.978;4.498;2022-12-29T13:50:14;100340.84;;;8.57;100.00
69784;BME280;57054;51.978;4.498;2022-12-29T13:52:45;100329.06;;;8.47;100.00
69784;BME280;57054;51.978;4.498;2022-12-29T13:55:22;100330.09;;;8.42;100.00
69784;BME280;57054;51.978;4.498;2022-12-29T14:00:18;100330.31;;;8.36;100.00
69784;BME280;57054;51.978;4.498;2022-12-29T14:07:48;100323.41;;;8.35;100.00
69784;BME280;57054;51.978;4.498;2022-12-29T14:10:31;100317.31;;;8.35;100.00
69784;BME280;57054;51.978;4.498;2022-12-29T14:13:05;100319.91;;;8.35;100.00
69784;BME280;57054;51.978;4.498;2022-12-29T14:15:34;100311.25;;;8.34;100.00
69784;BME280;57054;51.978;4.498;2022-12-29T14:18:18;100321.69;;;8.34;100.00
69784;BME280;57054;51.978;4.498;2022-12-29T14:28:37;100326.97;;;8.33;100.00
69784;BME280;57054;51.978;4.498;2022-12-29T14:31:48;100335.66;;;8.33;100.00
69784;BME280;57054;51.978;4.498;2022-12-29T14:39:02;100347.00;;;8.32;100.00
69784;BME280;57054;51.978;4.498;2022-12-29T14:41:32;100340.88;;;8.33;100.00
69784;BME280;57054;51.978;4.498;2022-12-29T14:44:01;100336.50;;;8.34;100.00
69784;BME280;57054;51.978;4.498;2022-12-29T14:49:08;100342.63;;;8.33;100.00
69784;BME280;57054;51.978;4.498;2022-12-29T14:51:38;100342.63;;;8.33;100.00
69784;BME280;57054;51.978;4.498;2022-12-29T14:54:50;100352.22;;;8.32;100.00
69784;BME280;57054;51.978;4.498;2022-12-29T14:56:49;100353.97;;;8.32;100.00
69784;BME280;57054;51.978;4.498;2022-12-29T14:59:15;100354.81;;;8.32;100.00
69784;BME280;57054;51.978;4.498;2022-12-29T15:01:47;100365.31;;;8.31;100.00
69784;BME280;57054;51.978;4.498;2022-12-29T15:04:17;100367.91;;;8.31;100.00
69784;BME280;57054;51.978;4.498;2022-12-29T15:06:44;100367.06;;;8.30;100.00
69784;BME280;57054;51.978;4.498;2022-12-29T15:11:49;100373.97;;;8.31;100.00
69784;BME280;57054;51.978;4.498;2022-12-29T15:16:56;100365.38;;;8.29;100.00
69784;BME280;57054;51.978;4.498;2022-12-29T15:19:25;100382.84;;;8.27;100.00
69784;BME280;57054;51.978;4.498;2022-12-29T15:21:52;100377.69;;;8.25;100.00
69784;BME280;57054;51.978;4.498;2022-12-29T15:24:17;100385.50;;;8.25;100.00
69784;BME280;57054;51.978;4.498;2022-12-29T15:26:45;100374.19;;;8.26;100.00